ADDS METAR Data INFO
IDs: Format: Raw Decoded Include TAF

Data at: 0543 UTC 11 Dec 2017

KMKJ 110535Z AUTO 26026G33KT 10SM CLR M01/M08 A3005 RMK AO2 T10071085
KMKJ 110515Z AUTO 26023G28KT 10SM CLR M01/M08 A3005 RMK AO2 T10091085
KMKJ 110455Z AUTO 26022G30KT 10SM CLR M01/M09 A3005 RMK AO2 T10081088 400001036
KMKJ 110435Z AUTO 26022G29KT 10SM CLR M01/M09 A3005 RMK AO2 T10101089
KMKJ 110415Z AUTO 26021G27KT 10SM CLR M01/M09 A3006 RMK AO2 T10101090
KMKJ 110355Z AUTO 26024G29KT 10SM CLR M01/M09 A3005 RMK AO2 T10071090
KMKJ 110335Z AUTO 26022G25KT 10SM CLR M01/M09 A3006 RMK AO2 T10101091
KMKJ 110315Z AUTO 26021KT 10SM CLR M01/M09 A3006 RMK AO2 T10101092
KMKJ 110255Z AUTO 26019G24KT 10SM CLR M01/M09 A3007 RMK AO2 T10101092
KMKJ 110235Z AUTO 26017G22KT 10SM CLR M01/M09 A3006 RMK AO2 T10111092
KMKJ 110215Z AUTO 26013KT 10SM CLR M01/M09 A3005 RMK AO2 T10121091
KMKJ 110155Z AUTO 25015G20KT 10SM CLR M01/M09 A3005 RMK AO2 T10111090
KMKJ 110135Z AUTO 26013KT 10SM CLR M01/M09 A3006 RMK AO2 T10101090
KMKJ 110115Z AUTO 26012G19KT 10SM CLR M01/M09 A3006 RMK AO2 T10081092
KMKJ 110055Z AUTO 25015KT 10SM CLR 00/M09 A3005 RMK AO2 T10051090
KMKJ 110035Z AUTO 25014G20KT 10SM CLR 00/M09 A3005 RMK AO2 T10051087
KMKJ 110015Z AUTO 25015KT 10SM CLR M01/M09 A3005 RMK AO2 T10071086
KMKJ 102355Z AUTO 25011KT 10SM CLR M01/M08 A3006 RMK AO2 T10081085 10000 21013
KMKJ 102335Z AUTO 25010KT 10SM CLR 00/M08 A3006 RMK AO2 T10051085
KMKJ 102315Z AUTO 26014G18KT 10SM CLR 00/M08 A3006 RMK AO2 T10051084
KMKJ 102255Z AUTO 25011G17KT 10SM CLR 00/M08 A3006 RMK AO2 T10051082
KMKJ 102235Z AUTO 25012KT 10SM CLR 00/M08 A3006 RMK AO2 T10031081
KMKJ 102215Z AUTO 25011G17KT 10SM CLR 00/M08 A3006 RMK AO2 T10031079
KMKJ 102155Z AUTO 25013G17KT 10SM CLR 00/M08 A3005 RMK AO2 T10011080
KMKJ 102135Z AUTO 25013G16KT 10SM CLR 00/M08 A3006 RMK AO2 T00001080
KMKJ 102115Z AUTO 25012G17KT 220V280 10SM CLR 00/M08 A3006 RMK AO2 T00001077
KMKJ 102055Z AUTO 26009G19KT 10SM CLR 00/M08 A3006 RMK AO2 T00001077
KMKJ 102035Z AUTO 24012G17KT 10SM CLR 00/M08 A3006 RMK AO2 T00001078
KMKJ 102015Z AUTO 25015G19KT 10SM CLR 00/M08 A3006 RMK AO2 T00001080
KMKJ 101955Z AUTO 24009KT 10SM CLR 00/M08 A3006 RMK AO2 T00001078
KMKJ 101935Z AUTO 25010G16KT 10SM CLR 00/M08 A3007 RMK AO2 T10011080
KMKJ 101915Z AUTO 24013G18KT 10SM CLR 00/M08 A3007 RMK AO2 T10031081
KMKJ 101855Z AUTO 24013G18KT 10SM CLR 00/M08 A3007 RMK AO2 T10051077
KMKJ 101835Z AUTO 24012G22KT 10SM CLR M01/M08 A3007 RMK AO2 T10091082
KMKJ 101815Z AUTO 23011G19KT 10SM CLR M01/M08 A3008 RMK AO2 T10101084
KMKJ 101755Z AUTO 24014G19KT 10SM CLR M01/M08 A3009 RMK AO2 T10131085 11013 21032
KMKJ 101735Z AUTO 25013G21KT 10SM CLR M01/M08 A3009 RMK AO2 T10151085
KMKJ 101715Z AUTO 25010KT 10SM SCT023 M02/M09 A3010 RMK AO2 T10171086
KMKJ 101655Z AUTO 26015G19KT 10SM SCT021 M02/M08 A3011 RMK AO2 T10181084
KMKJ 101635Z AUTO 24012KT 10SM BKN023 M02/M08 A3012 RMK AO2 T10201085
KMKJ 101615Z AUTO 25014G20KT 10SM OVC023 M02/M08 A3013 RMK AO2 T10231084
KMKJ 101555Z AUTO 25013G21KT 10SM OVC023 M02/M08 A3013 RMK AO2 T10231083
KMKJ 101535Z AUTO 26014G18KT 10SM OVC023 M02/M08 A3012 RMK AO2 T10251081
KMKJ 101515Z AUTO 27012G16KT 10SM OVC023 M02/M08 A3013 RMK AO2 T10251083
KMKJ 101455Z AUTO 27012G18KT 10SM OVC025 M03/M09 A3012 RMK AO2 T10271090
KMKJ 101435Z AUTO 28012G24KT 10SM OVC025 M03/M10 A3012 RMK AO2 T10271096
KMKJ 101415Z AUTO 26014G20KT 10SM OVC023 M03/M09 A3011 RMK AO2 T10271095
KMKJ 101355Z AUTO 26017G21KT 10SM OVC023 M03/M09 A3010 RMK AO2 T10311090
KMKJ 101335Z AUTO 26015G20KT 10SM OVC023 M03/M09 A3009 RMK AO2 T10311093
KMKJ 101315Z AUTO 28014G20KT 10SM OVC021 M03/M09 A3008 RMK AO2 T10321091
KMKJ 101255Z AUTO 28012G19KT 10SM OVC021 M03/M08 A3007 RMK AO2 T10311085
KMKJ 101235Z AUTO 28014G18KT 10SM OVC023 M03/M09 A3007 RMK AO2 T10311086
KMKJ 101215Z AUTO 27016G20KT 10SM OVC023 M03/M09 A3006 RMK AO2 T10321087
KMKJ 101155Z AUTO 29013G19KT 10SM OVC021 M03/M09 A3006 RMK AO2 70002 T10321088 11028 21036
KMKJ 101135Z AUTO 28012G22KT 10SM OVC021 M03/M09 A3006 RMK AO2 T10321090
KMKJ 101115Z AUTO 27014G24KT 10SM OVC021 M03/M09 A3005 RMK AO2 T10331087
KMKJ 101055Z AUTO 27015G24KT 10SM OVC019 M03/M09 A3004 RMK AO2 T10331088
KMKJ 101035Z AUTO 27015G26KT 10SM OVC019 M03/M09 A3003 RMK AO2 T10321086
KMKJ 101015Z AUTO 28014G23KT 10SM OVC019 M03/M08 A3002 RMK AO2 T10331085
KMKJ 100955Z AUTO 28017G28KT 10SM OVC019 M03/M08 A3001 RMK AO2 T10331084
KMKJ 100935Z AUTO 29017G27KT 10SM OVC019 M03/M08 A3000 RMK AO2 T10331085
KMKJ 100915Z AUTO 28017G26KT 5SM -SN OVC021 M03/M08 A3000 RMK AO2 T10351083
KMKJ 100855Z AUTO 28016G27KT 7SM -SN OVC021 M03/M08 A2999 RMK AO2 T10351082
KMKJ 100835Z AUTO 29016G32KT 7SM -SN OVC021 M03/M08 A2998 RMK AO2 T10351085
KMKJ 100815Z AUTO 27020G33KT 7SM -SN OVC021 M03/M08 A2997 RMK AO2 T10351085
KMKJ 100755Z AUTO 28017G23KT 10SM -SN OVC026 M03/M08 A2997 RMK AO2 T10351081
KMKJ 100735Z AUTO 28017G28KT 5SM -SN OVC024 M03/M08 A2996 RMK AO2 T10321085
KMKJ 100715Z AUTO 28018G24KT 3SM -SN SCT015 BKN022 OVC029 M03/M07 A2996 RMK AO2 T10311075
KMKJ 100655Z AUTO 28017G22KT 3/4SM -SN BKN013 OVC023 M03/M06 A2995 RMK AO2 T10351063
KMKJ 100635Z AUTO 28014G21KT 5SM -SN SCT008 BKN017 OVC022 M03/M07 A2994 RMK AO2 T10321069
KMKJ 100615Z AUTO 28010G19KT 1SM SN OVC010 M03/M06 A2995 RMK AO2 T10341064
KMKJ 100555Z AUTO 28010G16KT 10SM -SN SCT023 BKN027 OVC039 M03/M08 A2995 RMK AO2 T10281081 11010 21035
KMKJ 100535Z AUTO 26013KT 7SM -SN BKN020 OVC027 M03/M07 A2995 RMK AO2 T10311070
KMKJ 100515Z AUTO 28014KT 3SM -SN BKN023 OVC029 M03/M07 A2994 RMK AO2 T10331068
KMKJ 100455Z AUTO 28014KT 3SM -SN SCT017 SCT025 OVC033 M03/M07 A2993 RMK AO2 T10341071 400051035
KMKJ 100435Z AUTO 28014G21KT 3SM -SN SCT017 BKN027 OVC045 M03/M08 A2992 RMK AO2 T10301078
KMKJ 100415Z AUTO 28014G20KT 10SM SCT028 BKN047 OVC060 M03/M08 A2992 RMK AO2 T10281083
KMKJ 100355Z AUTO 26009G15KT 10SM SCT015 SCT027 OVC060 M03/M07 A2992 RMK AO2 T10311073
KMKJ 100335Z AUTO 28014G25KT 4SM -SN SCT010 BKN030 OVC060 M03/M07 A2991 RMK AO2 T10311074
KMKJ 100315Z AUTO 29018G26KT 1 3/4SM -SN BKN007 BKN015 OVC040 M03/M07 A2990 RMK AO2 VIS 1/2V5 T10281074
KMKJ 100255Z AUTO 28016G23KT 7SM -SN SCT005 BKN025 OVC050 M02/M08 A2989 RMK AO2 T10201076
KMKJ 100235Z AUTO 29017KT 10SM -SN SCT015 BKN025 OVC035 M02/M07 A2987 RMK AO2 T10171070
KMKJ 100215Z AUTO 30015G22KT 5SM -SN BKN023 OVC029 M02/M06 A2987 RMK AO2 T10161065
KMKJ 100155Z AUTO 29011G17KT 10SM -SN BKN023 OVC029 M01/M07 A2986 RMK AO2 T10121066
KMKJ 100135Z AUTO 27007G11KT 4SM -SN SCT017 BKN021 OVC026 M01/M05 A2986 RMK AO2 T10121051
KMKJ 100115Z AUTO 25009KT 10SM -SN BKN016 BKN023 OVC044 M01/M05 A2985 RMK AO2 T10121046
KMKJ 100055Z AUTO 26009KT 10SM -SN BKN016 BKN025 OVC042 M01/M04 A2985 RMK AO2 T10111045
KMKJ 100035Z AUTO 26014KT 10SM SCT016 BKN041 OVC095 M01/M05 A2984 RMK AO2 T10121047
KMKJ 100015Z AUTO 25016G23KT 10SM -SN BKN016 BKN040 OVC065 M01/M05 A2983 RMK AO2 T10101050
KMKJ 092355Z AUTO 25011G19KT 10SM OVC016 M01/M05 A2982 RMK AO2 T10101050 10005 21011
KMKJ 092335Z AUTO 25011G20KT 10SM OVC018 M01/M05 A2981 RMK AO2 T10101052
KMKJ 092315Z AUTO 26016G20KT 10SM OVC020 M01/M05 A2980 RMK AO2 T10101055
KMKJ 092255Z AUTO 25013G22KT 10SM OVC022 M01/M06 A2980 RMK AO2 T10101056
KMKJ 092235Z AUTO 25013KT 10SM BKN022 OVC065 M01/M06 A2979 RMK AO2 T10081059
KMKJ 092215Z AUTO 26011G17KT 10SM BKN065 OVC080 M01/M06 A2979 RMK AO2 T10071060
KMKJ 092155Z AUTO 25010G17KT 10SM SCT065 SCT075 OVC090 M01/M06 A2978 RMK AO2 T10071063
KMKJ 092135Z AUTO 26011G16KT 10SM OVC090 M01/M06 A2976 RMK AO2 T10071062
KMKJ 092115Z AUTO 25015KT 10SM SCT022 BKN100 00/M06 A2975 RMK AO2 T10021061
KMKJ 092055Z AUTO 24014G20KT 10SM BKN022 00/M07 A2975 RMK AO2 T10031066
KMKJ 092035Z AUTO 24014G17KT 10SM BKN022 00/M06 A2975 RMK AO2 T00001063
KMKJ 092015Z AUTO 24011G18KT 10SM BKN022 00/M06 A2975 RMK AO2 T00001061
KMKJ 091955Z AUTO 26010KT 10SM SCT013 SCT018 SCT024 00/M04 A2975 RMK AO2 T10021043
KMKJ 091935Z AUTO 25010G15KT 10SM SCT013 BKN020 BKN030 00/M04 A2975 RMK AO2 T10011038
KMKJ 091915Z AUTO 23008G16KT 10SM SCT015 BKN029 00/M04 A2976 RMK AO2 T00021041
KMKJ 091855Z AUTO 24011KT 10SM SCT008 SCT013 BKN029 00/M04 A2975 RMK AO2 T00031039
KMKJ 091835Z AUTO 25010KT 10SM BKN008 BKN017 OVC023 00/M03 A2976 RMK AO2 T00001029
KMKJ 091815Z AUTO 25010KT 10SM BKN012 OVC017 00/M03 A2976 RMK AO2 T10051030
KMKJ 091755Z AUTO 24012KT 10SM SCT012 OVC017 00/M03 A2976 RMK AO2 60002 T10051033 11002 21016